Time;durP1;ratioP1;P1;durP2;ratioP2;P2;SDS_P1;SDS_P2;PMS_P1;PMS_P2;Temp;Humidity;BMP_temperature;BMP_pressure;BME280_temperature;BME280_humidity;BME280_pressure;Samples;Min_cycle;Max_cycle;Signal;HPM_P1;HPM_P2
2023/01/30 00:00:10;;;;;;;8.40;6.57;;;3.90;99.90;;;;;;6126824;23;20906;-69
2023/01/30 00:02:39;;;;;;;12.30;7.93;;;3.90;99.90;;;;;;6115718;23;20461;-70
2023/01/30 00:05:06;;;;;;;18.20;8.83;;;4.00;99.90;;;;;;6117153;23;20445;-68
2023/01/30 00:07:33;;;;;;;6.10;4.73;;;4.00;99.90;;;;;;6113726;23;20480;-69
2023/01/30 00:10:00;;;;;;;14.97;8.90;;;4.00;99.90;;;;;;6115563;23;20490;-70
2023/01/30 00:12:27;;;;;;;13.90;6.63;;;4.00;99.90;;;;;;6115251;23;20410;-69
2023/01/30 00:14:53;;;;;;;20.20;9.50;;;4.00;99.90;;;;;;6116420;23;20488;-69
2023/01/30 00:17:20;;;;;;;12.90;6.80;;;4.10;99.90;;;;;;6112934;23;20488;-70
2023/01/30 00:19:49;;;;;;;8.27;4.30;;;4.10;99.90;;;;;;6117006;23;20489;-70
2023/01/30 00:22:15;;;;;;;11.70;4.90;;;4.20;99.90;;;;;;6114191;23;20450;-69
2023/01/30 00:24:42;;;;;;;9.73;5.93;;;4.20;99.90;;;;;;6116053;23;20766;-70
2023/01/30 00:27:09;;;;;;;17.63;8.43;;;4.20;99.90;;;;;;6115517;23;20419;-70
2023/01/30 00:29:36;;;;;;;21.10;8.10;;;4.20;99.90;;;;;;6115824;23;20596;-70
2023/01/30 00:32:03;;;;;;;16.53;7.50;;;4.10;99.90;;;;;;6120217;23;20483;-70
2023/01/30 00:34:30;;;;;;;11.83;8.47;;;4.20;99.90;;;;;;6129629;23;20435;-70
2023/01/30 00:36:58;;;;;;;17.53;5.77;;;4.20;99.90;;;;;;6113372;23;20500;-70
2023/01/30 00:39:25;;;;;;;16.90;8.70;;;4.20;99.90;;;;;;6116061;23;20576;-70
2023/01/30 00:47:21;;;;;;;5.67;5.17;;;4.40;99.90;;;;;;6111543;23;20437;-70
2023/01/30 00:49:48;;;;;;;18.17;6.20;;;4.30;99.90;;;;;;6114200;23;20476;-70
2023/01/30 00:52:16;;;;;;;14.77;6.07;;;4.30;99.90;;;;;;6116877;23;20475;-70
2023/01/30 00:54:43;;;;;;;10.53;6.93;;;4.40;99.90;;;;;;6116368;23;20426;-70
2023/01/30 00:57:10;;;;;;;10.80;5.90;;;4.40;99.90;;;;;;6117905;23;20974;-70
2023/01/30 00:59:37;;;;;;;12.70;7.00;;;4.40;99.90;;;;;;6118493;23;20416;-71
2023/01/30 01:02:04;;;;;;;15.87;9.23;;;4.40;99.90;;;;;;6135231;23;20411;-70
2023/01/30 01:04:41;;;;;;;16.90;7.43;;;4.40;99.90;;;;;;6118928;23;20396;-70
2023/01/30 01:07:11;;;;;;;24.70;8.97;;;4.40;99.90;;;;;;6116696;23;20397;-69
2023/01/30 01:09:40;;;;;;;19.20;8.40;;;4.40;99.90;;;;;;6118298;23;20437;-70
2023/01/30 01:12:07;;;;;;;8.03;5.30;;;4.50;99.90;;;;;;6111843;23;20441;-69
2023/01/30 01:14:34;;;;;;;13.90;6.40;;;4.50;99.90;;;;;;6114048;23;20498;-71
2023/01/30 01:17:01;;;;;;;12.80;6.40;;;4.60;99.90;;;;;;6115988;23;20465;-70
2023/01/30 01:19:28;;;;;;;12.43;6.77;;;4.60;99.90;;;;;;6118201;23;20383;-70
2023/01/30 01:21:55;;;;;;;17.73;7.53;;;4.60;99.90;;;;;;6073212;23;20414;-70
2023/01/30 01:24:22;;;;;;;18.27;7.80;;;4.50;99.90;;;;;;6125893;23;20456;-71
2023/01/30 01:26:51;;;;;;;15.47;9.47;;;4.50;99.90;;;;;;6114770;23;20507;-69
2023/01/30 01:29:17;;;;;;;10.77;6.07;;;4.60;99.90;;;;;;6115837;23;20523;-70
2023/01/30 01:31:45;;;;;;;10.97;7.40;;;4.60;99.90;;;;;;6116081;23;20495;-70
2023/01/30 01:34:12;;;;;;;17.47;6.87;;;4.60;99.90;;;;;;6116949;23;20793;-71
2023/01/30 01:36:39;;;;;;;13.57;9.00;;;4.60;99.90;;;;;;6114082;23;20426;-70
2023/01/30 01:39:06;;;;;;;11.10;6.97;;;4.50;99.90;;;;;;6118108;23;20415;-71
2023/01/30 01:41:32;;;;;;;9.70;8.73;;;4.50;99.90;;;;;;6123813;23;20809;-70
2023/01/30 01:44:03;;;;;;;15.30;7.77;;;4.50;99.90;;;;;;6124420;23;20407;-70
2023/01/30 01:46:34;;;;;;;15.93;8.10;;;4.50;99.90;;;;;;6117535;23;20707;-70
2023/01/30 01:49:06;;;;;;;10.70;6.20;;;4.50;99.90;;;;;;6117248;23;21234;-70
2023/01/30 01:51:36;;;;;;;12.03;8.30;;;4.60;99.90;;;;;;6113916;23;20407;-70
2023/01/30 01:54:08;;;;;;;18.20;9.93;;;4.50;99.90;;;;;;6117159;23;20484;-70
2023/01/30 01:56:39;;;;;;;20.93;10.80;;;4.40;99.90;;;;;;6118352;23;20404;-71
2023/01/30 01:59:13;;;;;;;13.50;8.37;;;4.50;99.90;;;;;;6115220;23;20917;-69
2023/01/30 02:01:40;;;;;;;13.90;7.40;;;4.60;99.90;;;;;;6112169;23;20407;-70
2023/01/30 02:04:09;;;;;;;13.07;6.20;;;4.70;99.90;;;;;;6115793;23;20411;-69
2023/01/30 02:06:39;;;;;;;12.30;8.17;;;4.60;99.90;;;;;;6116372;23;20472;-70
2023/01/30 02:09:08;;;;;;;16.20;8.37;;;4.50;99.90;;;;;;6114347;23;20515;-69
2023/01/30 02:11:42;;;;;;;15.33;6.50;;;4.50;99.90;;;;;;6108811;23;20434;-69
2023/01/30 02:14:12;;;;;;;19.60;9.93;;;4.60;99.90;;;;;;6113255;23;20736;-70
2023/01/30 02:16:41;;;;;;;15.97;9.23;;;4.50;99.90;;;;;;6040996;23;20414;-70
2023/01/30 02:19:22;;;;;;;13.83;7.90;;;4.50;99.90;;;;;;6115096;23;20380;-69
2023/01/30 02:22:17;;;;;;;9.10;5.20;;;4.60;99.90;;;;;;6114856;23;20404;-70
2023/01/30 02:25:22;;;;;;;20.83;10.73;;;4.60;99.90;;;;;;6051837;23;20473;-71
2023/01/30 02:28:22;;;;;;;21.23;9.60;;;4.70;99.90;;;;;;6115004;23;20781;-71
2023/01/30 02:31:06;;;;;;;14.07;8.97;;;4.80;99.90;;;;;;6112145;23;20509;-69
2023/01/30 02:33:40;;;;;;;19.17;8.00;;;4.70;99.90;;;;;;6114617;23;20441;-71
2023/01/30 02:36:16;;;;;;;12.63;8.63;;;4.70;99.90;;;;;;6114658;23;20380;-71
2023/01/30 02:38:52;;;;;;;15.90;7.33;;;4.80;99.90;;;;;;6113674;23;20453;-70
2023/01/30 02:41:27;;;;;;;16.10;9.60;;;4.70;99.90;;;;;;6114913;23;20431;-71
2023/01/30 02:44:04;;;;;;;12.47;6.10;;;4.80;99.90;;;;;;6116905;23;20954;-70
2023/01/30 02:46:40;;;;;;;16.80;8.27;;;4.90;99.90;;;;;;6111793;23;20365;-70
2023/01/30 02:49:11;;;;;;;10.47;6.97;;;4.90;99.90;;;;;;6116167;23;20440;-71
2023/01/30 02:51:39;;;;;;;19.87;9.57;;;4.90;99.90;;;;;;6130611;23;20450;-71
2023/01/30 02:54:07;;;;;;;18.73;9.53;;;5.00;99.90;;;;;;6125926;23;20414;-71
2023/01/30 02:56:45;;;;;;;16.20;10.47;;;5.00;99.90;;;;;;6134021;23;20383;-69
2023/01/30 02:59:14;;;;;;;16.10;10.60;;;4.90;99.90;;;;;;6126634;23;20424;-70
2023/01/30 03:02:23;;;;;;;19.93;10.03;;;5.00;99.90;;;;;;6120679;23;20469;-71
2023/01/30 03:05:07;;;;;;;16.30;7.60;;;5.00;99.90;;;;;;6069186;23;20402;-70
2023/01/30 03:07:44;;;;;;;12.80;6.23;;;5.10;99.90;;;;;;6117297;23;21010;-70
2023/01/30 03:10:22;;;;;;;24.20;10.80;;;5.10;99.90;;;;;;6113698;23;20390;-69
2023/01/30 03:12:54;;;;;;;24.20;10.87;;;5.10;99.90;;;;;;6117764;23;20429;-70
2023/01/30 03:15:28;;;;;;;12.03;8.37;;;5.10;99.90;;;;;;6041352;23;21101;-71
2023/01/30 03:17:57;;;;;;;23.53;13.83;;;5.10;99.90;;;;;;6113390;23;20415;-71
2023/01/30 03:20:24;;;;;;;21.90;12.20;;;5.20;99.90;;;;;;6112981;23;20494;-71
2023/01/30 03:22:51;;;;;;;14.03;7.97;;;5.20;99.90;;;;;;6116128;23;20393;-70
2023/01/30 03:25:21;;;;;;;11.80;5.53;;;5.20;99.90;;;;;;6114118;23;20383;-69
2023/01/30 03:27:50;;;;;;;21.93;10.50;;;5.20;99.90;;;;;;6088134;23;20401;-70
2023/01/30 03:30:18;;;;;;;14.23;7.80;;;5.30;99.90;;;;;;6110078;23;20415;-70
2023/01/30 03:32:45;;;;;;;22.47;10.97;;;5.40;99.90;;;;;;6117194;23;20427;-70
2023/01/30 03:35:16;;;;;;;23.20;11.10;;;5.40;99.90;;;;;;6116980;23;20388;-70
2023/01/30 03:37:43;;;;;;;10.33;7.70;;;5.40;99.90;;;;;;6116179;23;20865;-70
2023/01/30 03:40:15;;;;;;;9.67;7.43;;;5.40;99.90;;;;;;6116768;23;20406;-70
2023/01/30 03:42:41;;;;;;;16.80;10.40;;;5.40;99.90;;;;;;6118469;23;20727;-69
2023/01/30 03:45:10;;;;;;;16.77;7.77;;;5.40;99.90;;;;;;6116855;23;20450;-70
2023/01/30 03:47:37;;;;;;;16.80;9.27;;;5.40;99.90;;;;;;6119094;23;20385;-70
2023/01/30 03:50:04;;;;;;;12.90;7.93;;;5.40;99.90;;;;;;6119221;23;20449;-70
2023/01/30 03:52:34;;;;;;;11.27;8.83;;;5.40;99.90;;;;;;6116706;23;20480;-69
2023/01/30 03:55:01;;;;;;;15.13;10.20;;;5.40;99.90;;;;;;6131918;23;20434;-71
2023/01/30 03:57:28;;;;;;;18.10;10.27;;;5.30;99.90;;;;;;6115890;23;21068;-71
2023/01/30 03:59:55;;;;;;;13.63;6.50;;;5.40;99.90;;;;;;6128225;23;20797;-71
2023/01/30 04:02:23;;;;;;;12.57;7.50;;;5.50;99.90;;;;;;6116470;23;20474;-69
2023/01/30 04:04:50;;;;;;;15.80;6.17;;;5.50;99.90;;;;;;6114652;23;20397;-69
2023/01/30 04:07:18;;;;;;;28.30;8.93;;;5.50;99.90;;;;;;6116488;23;20426;-69
2023/01/30 04:09:46;;;;;;;22.37;9.97;;;5.40;99.90;;;;;;6065464;23;20499;-70
2023/01/30 04:12:13;;;;;;;24.00;9.10;;;5.50;99.90;;;;;;6124323;23;20401;-70
2023/01/30 04:14:40;;;;;;;12.80;8.20;;;5.50;99.90;;;;;;6121173;23;20384;-69
2023/01/30 04:17:07;;;;;;;20.37;10.17;;;5.50;99.90;;;;;;6116939;23;20423;-68
2023/01/30 04:19:34;;;;;;;28.07;8.90;;;5.40;99.90;;;;;;6115055;23;20409;-70
2023/01/30 04:22:01;;;;;;;12.40;6.73;;;5.30;99.90;;;;;;6087653;23;20427;-70
2023/01/30 04:24:28;;;;;;;20.60;7.27;;;5.40;99.90;;;;;;6113875;23;20468;-70
2023/01/30 04:26:56;;;;;;;19.83;10.50;;;5.40;99.90;;;;;;6121857;23;20386;-69
2023/01/30 04:29:23;;;;;;;6.03;4.80;;;5.40;99.90;;;;;;6128146;23;20534;-69
2023/01/30 04:31:50;;;;;;;23.00;11.33;;;5.40;99.90;;;;;;6119006;23;20438;-70
2023/01/30 04:34:17;;;;;;;30.80;12.10;;;5.40;99.90;;;;;;6116840;23;20499;-69
2023/01/30 04:36:44;;;;;;;7.37;5.47;;;5.40;99.90;;;;;;6118815;23;20417;-70
2023/01/30 04:39:11;;;;;;;23.27;10.90;;;5.40;99.90;;;;;;6113299;23;20432;-70
2023/01/30 04:41:38;;;;;;;18.00;11.17;;;5.40;99.90;;;;;;6113329;23;20467;-70
2023/01/30 04:44:06;;;;;;;11.80;7.30;;;5.40;99.90;;;;;;6117092;23;20386;-70
2023/01/30 04:46:33;;;;;;;14.03;9.20;;;5.40;99.90;;;;;;6116621;23;20415;-69
2023/01/30 04:49:00;;;;;;;16.13;8.40;;;5.40;99.90;;;;;;6117773;23;20540;-68
2023/01/30 04:51:27;;;;;;;21.13;12.30;;;5.50;99.90;;;;;;6112167;23;20402;-70
2023/01/30 04:53:54;;;;;;;25.17;10.17;;;5.40;99.90;;;;;;6121865;23;20497;-71
2023/01/30 04:56:21;;;;;;;11.93;7.00;;;5.40;99.90;;;;;;6122377;23;20470;-71
2023/01/30 04:58:48;;;;;;;16.77;7.93;;;5.50;99.90;;;;;;6118020;23;20469;-71
2023/01/30 05:01:22;;;;;;;16.10;7.20;;;5.50;99.90;;;;;;6122156;23;20464;-70
2023/01/30 05:03:50;;;;;;;14.90;8.10;;;5.50;99.90;;;;;;6118937;23;20724;-70
2023/01/30 05:06:17;;;;;;;17.70;8.30;;;5.60;99.90;;;;;;6123684;23;20493;-71
2023/01/30 05:08:44;;;;;;;11.97;7.63;;;5.60;99.90;;;;;;6126674;23;20489;-71
2023/01/30 05:11:12;;;;;;;16.93;6.17;;;5.60;99.90;;;;;;6117455;23;20907;-71
2023/01/30 05:13:42;;;;;;;5.00;3.63;;;5.60;99.90;;;;;;6118443;23;20453;-70
2023/01/30 05:16:09;;;;;;;17.00;7.63;;;5.60;99.90;;;;;;6113472;23;20490;-71
2023/01/30 05:18:38;;;;;;;15.63;7.80;;;5.70;99.90;;;;;;6111603;23;20446;-70
2023/01/30 05:21:07;;;;;;;9.20;5.77;;;5.80;99.90;;;;;;6113723;23;20413;-70
2023/01/30 05:23:34;;;;;;;11.00;7.30;;;5.80;99.90;;;;;;6115502;23;20421;-70
2023/01/30 05:26:01;;;;;;;10.50;5.20;;;5.80;99.90;;;;;;6111107;23;20386;-70
2023/01/30 05:28:29;;;;;;;7.50;4.80;;;5.80;99.90;;;;;;6111291;23;20393;-70
2023/01/30 05:31:01;;;;;;;9.73;6.53;;;5.80;99.90;;;;;;6112192;23;20517;-70
2023/01/30 05:33:28;;;;;;;15.23;8.43;;;5.80;99.90;;;;;;6113547;23;20431;-70
2023/01/30 05:35:56;;;;;;;6.67;6.00;;;5.80;99.90;;;;;;6115652;23;20392;-70
2023/01/30 05:38:24;;;;;;;11.83;6.97;;;5.90;99.90;;;;;;6117588;23;20390;-71
2023/01/30 05:40:59;;;;;;;17.47;7.93;;;5.90;99.90;;;;;;6114872;23;20433;-71
2023/01/30 05:43:29;;;;;;;3.97;3.63;;;5.90;99.90;;;;;;6113194;23;20385;-69
2023/01/30 05:45:58;;;;;;;13.50;7.13;;;5.90;99.90;;;;;;6111546;23;20381;-70
2023/01/30 05:48:27;;;;;;;13.13;5.67;;;5.90;99.90;;;;;;6115880;23;20446;-69
2023/01/30 05:50:58;;;;;;;12.63;6.10;;;6.00;99.90;;;;;;6121155;23;20421;-69
2023/01/30 05:53:27;;;;;;;14.17;8.03;;;5.90;99.90;;;;;;6114800;23;20370;-70
2023/01/30 05:55:56;;;;;;;12.00;7.67;;;5.90;99.90;;;;;;6125605;23;20806;-70
2023/01/30 05:58:23;;;;;;;12.53;7.90;;;6.00;99.90;;;;;;6128277;23;20449;-70
2023/01/30 06:00:49;;;;;;;10.30;5.20;;;6.00;99.90;;;;;;6120416;23;20407;-70
2023/01/30 06:03:17;;;;;;;8.20;5.20;;;6.00;99.90;;;;;;6119255;23;20478;-70
2023/01/30 06:05:44;;;;;;;15.00;6.60;;;6.00;99.90;;;;;;6119955;23;20501;-70
2023/01/30 06:08:12;;;;;;;16.37;8.27;;;6.00;99.90;;;;;;6119223;23;20385;-71
2023/01/30 06:10:39;;;;;;;9.80;5.50;;;6.10;99.90;;;;;;6119806;23;20484;-70
2023/01/30 06:13:06;;;;;;;7.10;6.37;;;6.10;99.90;;;;;;6116441;23;20494;-70
2023/01/30 06:15:33;;;;;;;12.97;7.43;;;6.10;99.90;;;;;;6104880;23;20549;-70
2023/01/30 06:18:00;;;;;;;9.53;6.30;;;6.10;99.90;;;;;;6118841;23;20381;-70
2023/01/30 06:20:30;;;;;;;15.37;8.40;;;6.10;99.90;;;;;;6118733;23;20898;-71
2023/01/30 06:22:56;;;;;;;12.17;7.80;;;6.20;99.90;;;;;;6116120;23;20444;-70
2023/01/30 06:25:26;;;;;;;16.73;8.40;;;6.20;99.90;;;;;;6118573;23;20465;-69
2023/01/30 06:27:53;;;;;;;15.60;9.47;;;6.30;99.90;;;;;;6068526;23;20403;-70
2023/01/30 06:30:20;;;;;;;16.83;10.20;;;6.30;99.90;;;;;;6123653;23;21047;-71
2023/01/30 06:32:50;;;;;;;14.17;9.53;;;6.30;99.90;;;;;;6125639;23;20514;-70
2023/01/30 06:35:17;;;;;;;14.23;8.70;;;6.40;99.90;;;;;;6119343;23;20387;-70
2023/01/30 06:37:44;;;;;;;10.37;9.40;;;6.40;99.90;;;;;;6121190;23;20724;-69
2023/01/30 06:40:13;;;;;;;19.33;8.87;;;6.40;99.90;;;;;;6117454;23;20380;-69
2023/01/30 06:42:45;;;;;;;16.10;9.23;;;6.40;99.90;;;;;;6121570;23;20417;-69
2023/01/30 06:45:13;;;;;;;8.37;5.97;;;6.50;99.90;;;;;;6120816;23;20501;-69
2023/01/30 06:47:45;;;;;;;11.83;7.00;;;6.50;99.90;;;;;;6126845;23;20414;-70
2023/01/30 06:50:13;;;;;;;15.30;9.40;;;6.50;99.90;;;;;;6120931;23;20440;-70
2023/01/30 06:52:43;;;;;;;12.00;7.17;;;6.50;99.90;;;;;;6066224;23;20468;-70
2023/01/30 06:55:11;;;;;;;14.37;7.77;;;6.60;99.90;;;;;;6121567;23;20430;-70
2023/01/30 06:57:38;;;;;;;16.40;7.17;;;6.60;99.90;;;;;;6119736;23;20783;-71
2023/01/30 07:00:10;;;;;;;6.10;3.80;;;6.60;99.90;;;;;;6120436;23;20449;-71
2023/01/30 07:02:38;;;;;;;9.63;5.53;;;6.70;99.90;;;;;;6120882;23;20404;-71
2023/01/30 07:05:07;;;;;;;9.00;5.47;;;6.70;99.90;;;;;;6119315;23;20386;-70
2023/01/30 07:07:35;;;;;;;10.70;6.90;;;6.70;99.90;;;;;;6122409;23;20389;-71
2023/01/30 07:10:02;;;;;;;9.10;5.57;;;6.70;99.90;;;;;;6126050;23;20449;-71
2023/01/30 07:12:29;;;;;;;10.07;7.70;;;6.70;99.90;;;;;;6130486;23;20979;-71
2023/01/30 07:14:56;;;;;;;7.93;4.93;;;6.80;99.90;;;;;;6124055;23;20448;-70
2023/01/30 07:17:26;;;;;;;17.83;7.97;;;6.80;99.90;;;;;;6120629;23;20389;-70
2023/01/30 07:19:53;;;;;;;12.53;6.60;;;6.80;99.90;;;;;;6121149;23;20465;-71
2023/01/30 07:22:20;;;;;;;9.97;7.50;;;6.80;99.90;;;;;;6121886;23;20981;-70
2023/01/30 07:24:47;;;;;;;11.37;6.10;;;6.80;99.90;;;;;;6120965;23;20440;-70
2023/01/30 07:27:15;;;;;;;8.70;5.70;;;6.80;99.90;;;;;;6119545;23;20381;-70
2023/01/30 07:29:42;;;;;;;10.60;5.27;;;6.90;99.90;;;;;;6119868;23;20445;-70
2023/01/30 07:32:15;;;;;;;7.60;4.03;;;6.80;99.90;;;;;;6120369;23;20457;-70
2023/01/30 07:34:43;;;;;;;11.70;9.20;;;6.90;99.90;;;;;;6120400;23;20369;-71
2023/01/30 07:37:11;;;;;;;11.47;6.43;;;6.90;99.90;;;;;;6119534;23;20502;-70
2023/01/30 07:39:38;;;;;;;15.67;7.13;;;6.90;99.90;;;;;;6120866;23;20424;-70
2023/01/30 07:42:06;;;;;;;7.50;4.37;;;6.90;99.90;;;;;;6116254;23;20409;-70
2023/01/30 07:44:33;;;;;;;8.20;5.67;;;6.80;99.90;;;;;;6132414;23;20389;-70
2023/01/30 07:47:00;;;;;;;13.70;4.90;;;6.90;99.90;;;;;;6119749;23;21022;-70
2023/01/30 07:49:27;;;;;;;21.43;6.30;;;6.80;99.90;;;;;;6118598;23;20502;-70
2023/01/30 07:51:56;;;;;;;5.73;3.70;;;6.90;99.90;;;;;;6064118;23;20517;-69
2023/01/30 07:54:22;;;;;;;8.20;3.80;;;6.90;99.90;;;;;;6121912;23;20410;-70
2023/01/30 07:56:49;;;;;;;5.70;4.77;;;7.00;99.90;;;;;;6121956;23;20921;-69
2023/01/30 07:59:17;;;;;;;8.20;4.03;;;6.90;99.90;;;;;;6120128;23;20865;-70
2023/01/30 08:01:44;;;;;;;6.73;3.23;;;6.90;99.90;;;;;;6121589;23;20441;-70
2023/01/30 08:04:11;;;;;;;4.67;4.17;;;6.90;99.90;;;;;;6120562;23;20744;-70
2023/01/30 08:06:38;;;;;;;8.70;3.33;;;7.00;99.90;;;;;;6121866;23;20434;-70
2023/01/30 08:09:07;;;;;;;3.23;1.30;;;7.10;99.90;;;;;;6117887;23;20919;-71
2023/01/30 08:11:35;;;;;;;2.80;2.13;;;7.10;99.90;;;;;;6119882;23;20703;-68
2023/01/30 08:14:02;;;;;;;3.40;2.67;;;7.10;99.90;;;;;;6117391;23;20403;-70
2023/01/30 08:16:30;;;;;;;6.80;2.00;;;7.20;99.90;;;;;;6120940;23;20446;-70
2023/01/30 08:18:58;;;;;;;3.93;2.77;;;7.10;99.90;;;;;;6115771;23;20426;-69
2023/01/30 08:21:25;;;;;;;5.97;2.33;;;7.00;99.90;;;;;;6121111;23;20480;-70
2023/01/30 08:23:52;;;;;;;2.10;1.47;;;7.10;99.90;;;;;;6118155;23;20433;-69
2023/01/30 08:26:20;;;;;;;8.40;2.50;;;7.10;99.90;;;;;;6121192;23;20521;-69
2023/01/30 08:28:47;;;;;;;4.60;1.67;;;7.20;99.90;;;;;;6120528;23;20487;-71
2023/01/30 08:31:15;;;;;;;2.03;1.67;;;7.20;99.90;;;;;;6121221;23;20791;-70
2023/01/30 08:33:42;;;;;;;3.03;1.70;;;7.20;99.90;;;;;;6121744;23;20422;-70
2023/01/30 08:36:10;;;;;;;2.83;2.20;;;7.20;99.90;;;;;;6127165;23;20457;-69
2023/01/30 08:38:37;;;;;;;4.80;3.27;;;7.30;99.90;;;;;;6128266;23;20727;-69
2023/01/30 08:41:06;;;;;;;11.63;2.00;;;7.20;99.90;;;;;;6139806;23;20409;-69
2023/01/30 08:43:35;;;;;;;6.87;1.87;;;7.20;99.90;;;;;;6120525;23;20952;-70
2023/01/30 08:46:02;;;;;;;7.10;2.30;;;7.20;99.90;;;;;;6119291;23;20617;-70
2023/01/30 08:48:29;;;;;;;1.00;0.90;;;7.20;99.90;;;;;;6119090;23;20472;-70
2023/01/30 08:50:56;;;;;;;4.50;2.50;;;7.20;99.90;;;;;;6117122;23;20428;-69
2023/01/30 08:53:23;;;;;;;4.40;1.93;;;7.30;99.90;;;;;;6121028;23;20473;-70
2023/01/30 08:55:51;;;;;;;1.80;1.27;;;7.40;99.90;;;;;;6122258;23;20464;-69
2023/01/30 08:58:18;;;;;;;2.60;1.47;;;7.20;99.90;;;;;;6121097;23;20406;-70
2023/01/30 09:00:48;;;;;;;1.33;1.23;;;7.20;99.90;;;;;;6121589;23;20517;-68
2023/01/30 09:03:15;;;;;;;1.50;1.30;;;7.20;99.90;;;;;;6121583;23;20815;-70
2023/01/30 09:05:42;;;;;;;5.10;1.07;;;7.20;99.90;;;;;;6121660;23;20464;-71
2023/01/30 09:08:09;;;;;;;17.43;2.73;;;7.20;99.90;;;;;;6115168;23;20416;-70
2023/01/30 09:10:36;;;;;;;3.07;1.33;;;7.20;99.90;;;;;;6120281;23;20420;-70
2023/01/30 09:13:04;;;;;;;1.40;1.30;;;7.20;99.90;;;;;;6118668;23;20506;-71
2023/01/30 09:15:31;;;;;;;2.97;1.10;;;7.20;99.90;;;;;;6119090;23;20448;-70
2023/01/30 09:17:59;;;;;;;6.20;2.47;;;7.10;99.90;;;;;;6117090;23;20469;-71
2023/01/30 09:20:26;;;;;;;0.90;0.73;;;7.10;99.90;;;;;;6118465;23;20388;-70
2023/01/30 09:22:53;;;;;;;1.90;1.10;;;7.20;99.90;;;;;;6118818;23;20840;-70
2023/01/30 09:25:20;;;;;;;1.73;1.53;;;7.30;99.90;;;;;;6121453;23;20473;-70
2023/01/30 09:27:49;;;;;;;6.83;1.60;;;7.30;99.90;;;;;;6117870;23;20381;-70
2023/01/30 09:30:16;;;;;;;10.20;2.67;;;7.20;99.90;;;;;;6120610;23;20453;-71
2023/01/30 09:32:43;;;;;;;3.50;2.20;;;7.20;99.90;;;;;;6121675;23;20452;-70
2023/01/30 09:35:12;;;;;;;3.30;1.63;;;7.40;99.90;;;;;;6123010;23;20831;-71
2023/01/30 09:37:46;;;;;;;2.60;1.30;;;7.70;99.90;;;;;;6137995;23;20382;-70
2023/01/30 09:40:17;;;;;;;2.07;1.43;;;7.60;99.90;;;;;;6119668;23;20415;-70
2023/01/30 09:43:04;;;;;;;9.50;2.27;;;7.50;99.90;;;;;;6118750;23;20509;-72
2023/01/30 09:45:46;;;;;;;3.13;1.77;;;7.40;99.90;;;;;;6117720;23;20399;-70
2023/01/30 09:48:21;;;;;;;4.50;3.57;;;7.50;99.90;;;;;;6118784;23;20848;-70
2023/01/30 09:51:03;;;;;;;3.23;1.97;;;7.40;99.90;;;;;;6121283;23;20456;-71
2023/01/30 09:53:34;;;;;;;6.60;1.37;;;7.30;99.90;;;;;;6121274;23;20457;-71
2023/01/30 09:56:01;;;;;;;1.30;1.10;;;7.20;99.90;;;;;;6118482;23;20481;-71
2023/01/30 09:58:43;;;;;;;2.80;1.70;;;7.20;99.90;;;;;;6068466;23;20457;-71
2023/01/30 10:01:18;;;;;;;6.30;2.03;;;7.30;99.90;;;;;;6126611;23;20409;-70
2023/01/30 10:03:57;;;;;;;4.50;1.70;;;7.20;99.90;;;;;;6130617;23;20392;-71
2023/01/30 10:06:25;;;;;;;1.53;1.43;;;7.20;99.90;;;;;;6121661;23;20452;-72
2023/01/30 10:08:58;;;;;;;9.53;2.30;;;7.60;99.90;;;;;;6118379;23;20401;-71
2023/01/30 10:11:39;;;;;;;12.83;2.43;;;8.00;99.90;;;;;;6118912;23;20454;-70
2023/01/30 10:14:37;;;;;;;3.50;1.70;;;8.00;99.90;;;;;;6120817;23;20393;-70
2023/01/30 10:17:23;;;;;;;4.63;1.87;;;7.90;99.90;;;;;;6117691;23;20481;-71
2023/01/30 10:20:00;;;;;;;2.33;1.37;;;7.80;99.90;;;;;;6120616;23;20385;-70
2023/01/30 10:22:41;;;;;;;2.30;1.67;;;8.00;99.90;;;;;;6120959;23;20417;-70
2023/01/30 10:25:24;;;;;;;2.97;1.73;;;8.00;99.90;;;;;;6120826;23;20419;-69
2023/01/30 10:27:57;;;;;;;2.17;1.50;;;8.00;99.90;;;;;;6120701;23;20406;-69
2023/01/30 10:30:25;;;;;;;8.13;3.17;;;7.90;99.90;;;;;;6120305;23;20482;-70
2023/01/30 10:32:57;;;;;;;5.40;1.93;;;7.80;99.90;;;;;;6122457;23;20469;-69
2023/01/30 10:35:29;;;;;;;4.03;1.43;;;7.70;99.90;;;;;;6135240;23;20698;-70
2023/01/30 10:38:06;;;;;;;2.03;1.27;;;7.60;99.90;;;;;;6122493;23;20369;-71
2023/01/30 10:40:41;;;;;;;1.00;0.90;;;7.60;99.90;;;;;;6122869;23;20486;-70
2023/01/30 10:43:16;;;;;;;3.97;2.63;;;7.40;99.90;;;;;;6124102;23;20481;-70
2023/01/30 10:45:54;;;;;;;4.13;1.37;;;7.40;99.90;;;;;;6121879;23;20485;-68
2023/01/30 10:48:47;;;;;;;2.27;1.70;;;7.50;99.90;;;;;;6121885;23;20434;-69
2023/01/30 10:51:23;;;;;;;2.03;1.23;;;7.50;99.90;;;;;;6121324;23;20453;-69
2023/01/30 10:53:56;;;;;;;7.10;1.93;;;7.40;99.90;;;;;;6123456;23;20397;-71
2023/01/30 10:56:33;;;;;;;6.00;1.80;;;7.50;99.90;;;;;;6123855;23;20395;-70
2023/01/30 10:59:10;;;;;;;3.20;1.97;;;7.70;99.90;;;;;;6122750;23;20443;-71
2023/01/30 11:01:43;;;;;;;1.67;1.13;;;7.70;99.90;;;;;;6120430;23;20446;-70
2023/01/30 11:04:19;;;;;;;1.80;1.60;;;7.80;99.90;;;;;;6121911;23;20373;-70
2023/01/30 11:06:46;;;;;;;4.50;1.00;;;7.80;99.90;;;;;;6123131;23;20700;-70
2023/01/30 11:09:15;;;;;;;3.63;1.43;;;7.90;99.90;;;;;;6122959;23;20478;-70
2023/01/30 11:11:49;;;;;;;2.40;1.33;;;7.90;99.90;;;;;;6120173;23;20456;-69
2023/01/30 11:14:16;;;;;;;5.80;1.30;;;7.90;99.90;;;;;;6120268;23;20366;-71
2023/01/30 11:16:45;;;;;;;9.53;2.93;;;7.90;99.90;;;;;;6121908;23;20411;-70
2023/01/30 11:19:13;;;;;;;4.20;1.63;;;7.90;99.90;;;;;;6122178;23;20421;-71
2023/01/30 11:21:42;;;;;;;2.27;1.63;;;7.80;99.90;;;;;;6120446;23;20470;-70
2023/01/30 11:24:16;;;;;;;3.77;1.20;;;7.70;99.90;;;;;;6122773;23;20449;-70
2023/01/30 11:26:44;;;;;;;2.30;1.47;;;7.70;99.90;;;;;;6076895;23;20445;-70
2023/01/30 11:29:26;;;;;;;3.20;1.80;;;7.70;99.90;;;;;;6101413;23;20418;-71
2023/01/30 11:31:54;;;;;;;10.97;2.10;;;7.70;99.90;;;;;;6132856;23;20428;-70
2023/01/30 11:34:23;;;;;;;6.60;2.10;;;7.70;99.90;;;;;;6122010;23;20472;-70
2023/01/30 11:36:51;;;;;;;2.70;1.30;;;7.80;99.90;;;;;;6122294;23;20722;-69
2023/01/30 11:39:28;;;;;;;9.40;1.77;;;7.90;99.90;;;;;;6120483;23;20382;-70
2023/01/30 11:42:03;;;;;;;3.67;1.40;;;7.80;99.90;;;;;;6120133;23;21026;-70
2023/01/30 11:44:32;;;;;;;3.63;1.50;;;7.90;99.90;;;;;;6120807;23;20377;-69
2023/01/30 11:47:01;;;;;;;13.00;2.00;;;7.80;99.90;;;;;;6122157;23;20473;-69
2023/01/30 11:49:35;;;;;;;4.70;1.30;;;7.80;99.90;;;;;;6118514;23;20473;-70
2023/01/30 11:52:04;;;;;;;9.80;2.50;;;7.90;99.90;;;;;;6123256;23;20512;-71
2023/01/30 11:54:38;;;;;;;3.80;1.97;;;8.10;99.90;;;;;;6120838;23;20385;-70
2023/01/30 11:57:10;;;;;;;5.30;1.47;;;8.20;99.90;;;;;;6121490;23;20888;-70
2023/01/30 11:59:43;;;;;;;1.77;1.67;;;8.00;99.90;;;;;;6119393;23;20745;-70
2023/01/30 12:02:18;;;;;;;3.20;1.13;;;8.00;99.90;;;;;;6121839;23;21074;-70
2023/01/30 12:04:46;;;;;;;4.40;1.33;;;8.00;99.90;;;;;;6122261;23;20806;-70
2023/01/30 12:07:20;;;;;;;8.23;1.53;;;8.00;99.90;;;;;;6118911;23;20915;-69
2023/01/30 12:09:50;;;;;;;7.40;1.80;;;8.00;99.90;;;;;;6118553;23;20934;-71
2023/01/30 12:12:29;;;;;;;4.03;1.90;;;8.00;99.90;;;;;;6121579;23;21072;-71
2023/01/30 12:15:04;;;;;;;3.10;2.07;;;8.00;99.90;;;;;;6119152;23;20469;-70
2023/01/30 12:17:39;;;;;;;3.97;2.00;;;8.10;99.90;;;;;;6119658;23;20395;-70
2023/01/30 12:20:17;;;;;;;2.50;1.93;;;8.10;99.90;;;;;;6120815;23;20376;-69
2023/01/30 12:22:49;;;;;;;2.57;1.27;;;7.90;99.90;;;;;;6120034;23;20432;-71
2023/01/30 12:25:23;;;;;;;4.10;2.40;;;8.10;99.90;;;;;;6124186;23;20435;-70
2023/01/30 12:27:58;;;;;;;1.20;0.97;;;8.50;99.90;;;;;;6137444;23;20672;-70
2023/01/30 12:30:32;;;;;;;3.00;1.60;;;8.90;99.90;;;;;;6121350;23;20410;-70
2023/01/30 12:33:01;;;;;;;2.53;2.10;;;8.60;99.90;;;;;;6117684;23;20485;-71
2023/01/30 12:35:39;;;;;;;1.17;1.07;;;8.40;99.90;;;;;;6119990;23;20419;-70
2023/01/30 12:38:14;;;;;;;6.53;1.63;;;8.40;99.90;;;;;;6119376;23;20782;-71
2023/01/30 12:40:52;;;;;;;4.23;1.73;;;8.50;99.90;;;;;;6122616;23;20508;-71
2023/01/30 12:43:43;;;;;;;8.93;3.07;;;8.70;99.90;;;;;;6117927;23;20702;-70
2023/01/30 12:46:25;;;;;;;2.20;1.37;;;9.30;99.90;;;;;;6120646;23;20501;-71
2023/01/30 12:49:05;;;;;;;1.20;0.93;;;9.30;99.90;;;;;;6120627;23;20488;-71
2023/01/30 12:51:48;;;;;;;4.83;1.50;;;9.60;99.90;;;;;;6126961;23;20457;-70
2023/01/30 12:54:25;;;;;;;5.13;1.80;;;9.60;99.90;;;;;;6129115;23;20390;-70
2023/01/30 12:57:03;;;;;;;4.10;1.47;;;9.20;99.90;;;;;;6125378;23;20400;-70
2023/01/30 12:59:36;;;;;;;2.77;1.83;;;9.00;99.90;;;;;;6122398;23;20399;-71
2023/01/30 13:02:28;;;;;;;7.43;2.60;;;9.10;99.90;;;;;;6123252;23;20762;-71
2023/01/30 13:05:06;;;;;;;10.07;2.10;;;9.20;99.90;;;;;;6122070;23;20788;-71
2023/01/30 13:07:46;;;;;;;5.07;1.47;;;9.10;99.90;;;;;;6122585;23;20365;-70
2023/01/30 13:10:21;;;;;;;19.03;2.00;;;9.00;99.90;;;;;;6123263;23;20401;-69
2023/01/30 13:12:58;;;;;;;1.77;1.43;;;8.80;99.90;;;;;;6120689;23;20486;-70